Time;durP1;ratioP1;P1;durP2;ratioP2;P2;SDS_P1;SDS_P2;PMS_P1;PMS_P2;Temp;Humidity;BMP_temperature;BMP_pressure;BME280_temperature;BME280_humidity;BME280_pressure;Samples;Min_cycle;Max_cycle;Signal;HPM_P1;HPM_P2
2023/10/16 00:00:42;;;;;;;15.48;7.18;;;;;;;;;;5099190;28;20375;-67
2023/10/16 00:03:12;;;;;;;10.98;7.57;;;;;;;;;;5098545;27;20419;-71
2023/10/16 00:05:39;;;;;;;10.20;7.60;;;;;;;;;;5105829;28;20019;-68
2023/10/16 00:08:06;;;;;;;11.27;7.00;;;;;;;;;;5105849;28;20039;-66
2023/10/16 00:10:35;;;;;;;12.20;6.95;;;;;;;;;;5103987;27;20035;-66
2023/10/16 00:13:05;;;;;;;13.05;8.20;;;;;;;;;;5100335;28;20035;-70
2023/10/16 00:15:44;;;;;;;9.90;7.07;;;;;;;;;;5103104;28;20559;-67
2023/10/16 00:18:16;;;;;;;10.60;6.82;;;;;;;;;;5100324;28;20059;-67
2023/10/16 00:20:43;;;;;;;8.18;6.55;;;;;;;;;;5106496;28;20034;-67
2023/10/16 00:23:12;;;;;;;13.77;6.43;;;;;;;;;;5098019;27;20502;-67
2023/10/16 00:25:39;;;;;;;8.75;6.22;;;;;;;;;;5100318;28;20031;-66
2023/10/16 00:28:06;;;;;;;13.13;6.88;;;;;;;;;;5104788;27;20028;-67
2023/10/16 00:30:32;;;;;;;9.25;6.53;;;;;;;;;;5102517;28;20075;-67
2023/10/16 00:32:59;;;;;;;16.75;5.90;;;;;;;;;;5103412;27;20032;-68
2023/10/16 00:35:25;;;;;;;12.07;6.50;;;;;;;;;;5099221;28;20028;-67
2023/10/16 00:37:51;;;;;;;10.40;6.10;;;;;;;;;;5098880;27;20032;-67
2023/10/16 00:40:31;;;;;;;10.57;5.72;;;;;;;;;;5101400;27;20415;-67
2023/10/16 00:42:59;;;;;;;8.90;5.85;;;;;;;;;;5098151;28;20028;-66
2023/10/16 00:45:25;;;;;;;8.27;5.15;;;;;;;;;;5103457;27;20158;-66
2023/10/16 00:47:52;;;;;;;8.95;5.35;;;;;;;;;;5092033;28;20080;-67
2023/10/16 00:50:18;;;;;;;7.18;5.60;;;;;;;;;;5099375;27;20491;-67
2023/10/16 00:52:46;;;;;;;8.90;5.05;;;;;;;;;;5116296;27;20397;-66
2023/10/16 00:55:12;;;;;;;8.18;4.63;;;;;;;;;;5095832;27;20027;-66
2023/10/16 00:57:40;;;;;;;5.90;4.88;;;;;;;;;;5101528;28;20142;-68
2023/10/16 01:00:12;;;;;;;8.57;5.00;;;;;;;;;;5098100;27;20042;-67
2023/10/16 01:02:41;;;;;;;7.35;4.85;;;;;;;;;;5104952;27;20032;-66
2023/10/16 01:05:08;;;;;;;6.82;4.50;;;;;;;;;;5101866;27;20114;-67
2023/10/16 01:07:36;;;;;;;6.47;4.50;;;;;;;;;;5087893;27;20019;-66
2023/10/16 01:10:10;;;;;;;7.75;4.63;;;;;;;;;;5097674;28;20147;-63
2023/10/16 01:12:36;;;;;;;5.97;4.57;;;;;;;;;;5102515;28;20495;-63
2023/10/16 01:15:04;;;;;;;13.32;5.60;;;;;;;;;;5100092;28;20476;-63
2023/10/16 01:17:32;;;;;;;7.78;4.53;;;;;;;;;;5102607;27;20019;-67
2023/10/16 01:19:58;;;;;;;10.73;5.45;;;;;;;;;;5099496;27;20503;-63
2023/10/16 01:22:29;;;;;;;8.07;5.55;;;;;;;;;;5098823;28;20030;-63
2023/10/16 01:24:59;;;;;;;9.25;5.35;;;;;;;;;;5097268;27;20024;-63
2023/10/16 01:27:29;;;;;;;7.47;5.38;;;;;;;;;;5097438;28;20068;-64
2023/10/16 01:30:03;;;;;;;6.45;4.85;;;;;;;;;;5101038;28;20038;-63
2023/10/16 01:32:31;;;;;;;7.32;5.15;;;;;;;;;;5103668;27;20031;-63
2023/10/16 01:34:59;;;;;;;7.25;5.18;;;;;;;;;;5107381;27;20088;-64
2023/10/16 01:37:25;;;;;;;6.40;4.60;;;;;;;;;;5103355;27;20024;-63
2023/10/16 01:39:55;;;;;;;9.15;4.70;;;;;;;;;;5093978;28;20055;-63
2023/10/16 01:42:23;;;;;;;8.10;4.85;;;;;;;;;;5103277;28;20081;-63
2023/10/16 01:44:52;;;;;;;6.78;4.65;;;;;;;;;;5104983;27;20019;-63
2023/10/16 01:47:19;;;;;;;7.32;4.78;;;;;;;;;;5091704;28;20106;-63
2023/10/16 01:49:49;;;;;;;7.03;5.07;;;;;;;;;;5101218;28;20034;-63
2023/10/16 01:52:15;;;;;;;7.88;5.07;;;;;;;;;;5091585;28;20027;-62
2023/10/16 01:54:44;;;;;;;7.45;4.35;;;;;;;;;;5104019;28;20479;-63
2023/10/16 01:57:11;;;;;;;7.65;4.70;;;;;;;;;;5097412;27;20442;-64
2023/10/16 01:59:39;;;;;;;6.32;4.40;;;;;;;;;;5093820;28;20043;-63
2023/10/16 02:02:05;;;;;;;6.32;4.85;;;;;;;;;;5100434;28;20168;-63
2023/10/16 02:04:31;;;;;;;5.25;4.30;;;;;;;;;;5099704;28;20031;-63
2023/10/16 02:06:57;;;;;;;7.68;4.88;;;;;;;;;;5102311;27;20402;-63
2023/10/16 02:09:24;;;;;;;4.60;3.70;;;;;;;;;;5103419;27;20043;-63
2023/10/16 02:11:50;;;;;;;4.68;3.90;;;;;;;;;;5098785;27;20531;-63
2023/10/16 02:14:16;;;;;;;5.78;3.90;;;;;;;;;;5098029;28;20106;-63
2023/10/16 02:16:42;;;;;;;5.72;3.60;;;;;;;;;;5100220;28;20106;-63
2023/10/16 02:19:11;;;;;;;6.57;3.70;;;;;;;;;;5094103;28;20536;-66
2023/10/16 02:21:40;;;;;;;9.07;4.00;;;;;;;;;;5100293;28;20040;-66
2023/10/16 02:24:07;;;;;;;9.35;3.58;;;;;;;;;;5092339;27;20445;-67
2023/10/16 02:26:44;;;;;;;4.57;3.67;;;;;;;;;;5101302;28;20741;-66
2023/10/16 02:29:12;;;;;;;5.30;3.35;;;;;;;;;;5096575;28;20024;-66
2023/10/16 02:31:39;;;;;;;7.45;3.65;;;;;;;;;;5103518;28;20390;-66
2023/10/16 02:34:14;;;;;;;4.95;3.42;;;;;;;;;;5099616;27;20480;-63
2023/10/16 02:36:40;;;;;;;5.15;3.63;;;;;;;;;;5102282;28;20036;-63
2023/10/16 02:39:10;;;;;;;4.28;3.28;;;;;;;;;;5095435;28;20049;-63
2023/10/16 02:41:41;;;;;;;4.38;3.22;;;;;;;;;;5099367;28;20032;-63
2023/10/16 02:44:12;;;;;;;5.45;3.42;;;;;;;;;;5101831;27;21240;-67
2023/10/16 02:46:38;;;;;;;4.88;3.30;;;;;;;;;;5101793;28;20121;-68
2023/10/16 02:49:07;;;;;;;5.57;3.95;;;;;;;;;;5101684;28;20032;-66
2023/10/16 02:51:33;;;;;;;5.97;3.20;;;;;;;;;;5093100;28;20045;-66
2023/10/16 02:54:00;;;;;;;4.78;2.88;;;;;;;;;;5096946;28;20201;-66
2023/10/16 02:56:26;;;;;;;4.72;3.22;;;;;;;;;;5103014;28;20028;-67
2023/10/16 02:58:55;;;;;;;3.10;2.80;;;;;;;;;;5096432;28;20142;-66
2023/10/16 03:01:22;;;;;;;4.90;3.28;;;;;;;;;;5102773;28;20016;-66
2023/10/16 03:03:52;;;;;;;5.43;3.17;;;;;;;;;;5096327;28;20016;-66
2023/10/16 03:06:18;;;;;;;4.60;3.30;;;;;;;;;;5097178;28;20093;-66
2023/10/16 03:08:51;;;;;;;4.35;3.60;;;;;;;;;;5100493;28;20031;-67
2023/10/16 03:11:18;;;;;;;5.30;3.30;;;;;;;;;;5094825;28;20024;-66
2023/10/16 03:13:47;;;;;;;6.20;3.50;;;;;;;;;;5097018;28;20135;-66
2023/10/16 03:16:18;;;;;;;8.02;4.10;;;;;;;;;;5097927;28;20055;-66
2023/10/16 03:18:47;;;;;;;5.68;3.95;;;;;;;;;;5095595;28;20042;-66
2023/10/16 03:23:45;;;;;;;4.28;3.55;;;;;;;;;;5099274;28;20024;-66
2023/10/16 03:26:33;;;;;;;5.90;3.78;;;;;;;;;;5098738;28;20015;-66
2023/10/16 03:29:00;;;;;;;6.05;3.63;;;;;;;;;;5095798;28;20032;-66
2023/10/16 03:31:28;;;;;;;5.90;3.47;;;;;;;;;;5101323;28;20028;-66
2023/10/16 03:33:54;;;;;;;5.10;3.88;;;;;;;;;;5099502;28;20489;-66
2023/10/16 03:36:21;;;;;;;7.35;3.75;;;;;;;;;;5097590;28;20471;-66
2023/10/16 03:38:50;;;;;;;8.80;4.40;;;;;;;;;;5095178;28;20081;-66
2023/10/16 03:41:28;;;;;;;6.07;3.97;;;;;;;;;;5093377;28;20107;-66
2023/10/16 03:43:58;;;;;;;5.80;4.50;;;;;;;;;;5094703;28;20035;-66
2023/10/16 03:46:27;;;;;;;5.10;3.90;;;;;;;;;;5098215;28;20218;-66
2023/10/16 03:48:56;;;;;;;5.47;3.95;;;;;;;;;;5096353;28;20040;-66
2023/10/16 03:51:23;;;;;;;10.20;4.00;;;;;;;;;;5100871;28;20041;-66
2023/10/16 03:53:52;;;;;;;7.05;3.67;;;;;;;;;;5098661;28;20032;-66
2023/10/16 03:56:18;;;;;;;5.65;3.45;;;;;;;;;;5098277;28;20586;-66
2023/10/16 03:58:44;;;;;;;6.15;4.22;;;;;;;;;;5091232;28;20028;-66
2023/10/16 04:01:11;;;;;;;6.60;3.40;;;;;;;;;;5104123;27;20039;-66
2023/10/16 04:03:47;;;;;;;4.68;3.55;;;;;;;;;;5100886;28;20035;-66
2023/10/16 04:06:18;;;;;;;6.53;3.13;;;;;;;;;;5102108;28;20027;-66
2023/10/16 04:08:45;;;;;;;4.25;3.65;;;;;;;;;;5097991;27;20110;-66
2023/10/16 04:11:12;;;;;;;5.22;3.53;;;;;;;;;;5105761;27;20035;-66
2023/10/16 04:13:47;;;;;;;5.38;4.13;;;;;;;;;;5094231;28;20118;-66
2023/10/16 04:16:25;;;;;;;7.30;4.03;;;;;;;;;;5103909;28;20135;-66
2023/10/16 04:18:51;;;;;;;7.82;3.50;;;;;;;;;;5098962;28;20032;-66
2023/10/16 04:26:29;;;;;;;6.47;3.47;;;;;;;;;;5103808;27;20725;-66
2023/10/16 04:31:57;;;;;;;4.80;3.45;;;;;;;;;;5104097;28;20040;-62
2023/10/16 04:36:52;;;;;;;6.72;3.13;;;;;;;;;;5099219;28;20028;-62
2023/10/16 04:45:24;;;;;;;5.70;3.60;;;;;;;;;;5104971;28;20510;-63
2023/10/16 05:08:38;;;;;;;4.93;3.17;;;;;;;;;;5101707;27;20028;-63
2023/10/16 05:13:55;;;;;;;4.38;2.78;;;;;;;;;;5100858;28;20036;-67
2023/10/16 05:16:35;;;;;;;6.03;3.15;;;;;;;;;;5103938;27;20023;-66
2023/10/16 05:22:06;;;;;;;4.57;3.28;;;;;;;;;;5041625;28;20033;-66
2023/10/16 06:14:14;;;;;;;5.28;3.28;;;;;;;;;;5090582;27;20124;-65
2023/10/16 06:16:40;;;;;;;5.10;3.17;;;;;;;;;;5101793;28;20074;-65
2023/10/16 06:19:22;;;;;;;7.18;3.25;;;;;;;;;;5099726;28;20337;-66
2023/10/16 06:21:49;;;;;;;5.03;2.90;;;;;;;;;;5102076;27;20036;-62
2023/10/16 06:26:54;;;;;;;9.23;3.38;;;;;;;;;;5096027;28;20028;-63
2023/10/16 06:29:21;;;;;;;3.90;2.75;;;;;;;;;;5100410;28;20028;-64
2023/10/16 06:31:49;;;;;;;5.35;3.03;;;;;;;;;;5098309;27;20092;-64
2023/10/16 06:34:16;;;;;;;4.65;2.88;;;;;;;;;;5100510;28;20031;-62
2023/10/16 06:36:42;;;;;;;4.55;3.10;;;;;;;;;;5100002;27;20050;-65
2023/10/16 06:39:22;;;;;;;4.40;2.90;;;;;;;;;;5100788;27;20055;-62
2023/10/16 06:41:54;;;;;;;6.65;3.13;;;;;;;;;;5102485;28;20612;-62
2023/10/16 06:44:33;;;;;;;5.80;3.58;;;;;;;;;;5097474;28;20673;-63
2023/10/16 06:47:00;;;;;;;5.03;3.08;;;;;;;;;;5100260;28;20581;-62
2023/10/16 06:49:28;;;;;;;4.63;3.17;;;;;;;;;;5097222;28;20024;-62
2023/10/16 06:51:57;;;;;;;4.07;2.70;;;;;;;;;;5099048;27;20032;-62
2023/10/16 06:54:25;;;;;;;5.18;3.58;;;;;;;;;;5096061;28;20505;-63
2023/10/16 06:56:52;;;;;;;6.72;3.95;;;;;;;;;;5098564;28;20063;-63
2023/10/16 06:59:18;;;;;;;6.88;3.30;;;;;;;;;;5099756;28;20038;-62
2023/10/16 07:01:50;;;;;;;5.13;3.55;;;;;;;;;;5097775;28;20035;-62
2023/10/16 07:04:16;;;;;;;5.88;3.08;;;;;;;;;;5097122;28;20031;-62
2023/10/16 07:06:44;;;;;;;3.95;3.08;;;;;;;;;;5102848;28;20107;-62
2023/10/16 07:09:12;;;;;;;4.45;3.08;;;;;;;;;;5100534;28;20020;-68
2023/10/16 07:11:42;;;;;;;4.68;3.20;;;;;;;;;;5095665;28;20101;-62
2023/10/16 07:14:12;;;;;;;6.75;3.03;;;;;;;;;;5093233;28;20034;-62
2023/10/16 07:16:39;;;;;;;4.95;2.60;;;;;;;;;;5099526;28;20157;-62
2023/10/16 07:19:07;;;;;;;3.08;2.78;;;;;;;;;;5103292;28;20035;-63
2023/10/16 07:21:33;;;;;;;4.63;2.83;;;;;;;;;;5092227;28;20044;-62
2023/10/16 07:24:02;;;;;;;4.18;3.05;;;;;;;;;;5099367;28;20480;-62
2023/10/16 07:26:29;;;;;;;7.47;3.10;;;;;;;;;;5101315;28;20483;-62
2023/10/16 07:28:58;;;;;;;4.70;2.67;;;;;;;;;;5104651;28;21284;-62
2023/10/16 07:31:24;;;;;;;3.60;2.55;;;;;;;;;;5093334;28;20118;-62
2023/10/16 07:33:53;;;;;;;5.78;2.83;;;;;;;;;;5098095;28;20032;-62
2023/10/16 07:36:19;;;;;;;6.32;3.05;;;;;;;;;;5094023;28;20028;-62
2023/10/16 07:38:46;;;;;;;3.70;2.85;;;;;;;;;;5079428;28;20497;-62
2023/10/16 07:41:18;;;;;;;4.32;2.83;;;;;;;;;;5102799;27;20107;-62
2023/10/16 07:43:48;;;;;;;3.85;2.53;;;;;;;;;;5092423;28;21521;-66
2023/10/16 07:46:28;;;;;;;6.43;2.92;;;;;;;;;;5102201;27;20011;-62
2023/10/16 07:48:54;;;;;;;3.30;2.50;;;;;;;;;;5096055;28;20482;-62
2023/10/16 07:51:21;;;;;;;6.97;2.70;;;;;;;;;;5102883;27;20031;-62
2023/10/16 07:53:51;;;;;;;8.13;2.67;;;;;;;;;;5111849;27;20111;-62
2023/10/16 07:58:54;;;;;;;5.60;2.50;;;;;;;;;;5098984;27;20764;-62
2023/10/16 08:01:36;;;;;;;3.88;2.65;;;;;;;;;;5097363;28;20112;-62
2023/10/16 08:04:03;;;;;;;6.93;3.08;;;;;;;;;;5111015;27;20032;-62
2023/10/16 08:06:29;;;;;;;5.13;3.00;;;;;;;;;;5105264;27;20023;-65
2023/10/16 08:11:45;;;;;;;4.68;2.90;;;;;;;;;;5080812;28;20411;-65
2023/10/16 08:14:13;;;;;;;5.15;3.15;;;;;;;;;;5103949;28;20353;-65
2023/10/16 08:16:39;;;;;;;6.10;3.10;;;;;;;;;;5100367;27;20032;-66
2023/10/16 08:19:15;;;;;;;6.68;3.50;;;;;;;;;;5107161;28;20075;-65
2023/10/16 08:21:45;;;;;;;5.72;3.00;;;;;;;;;;5105947;28;20035;-65
2023/10/16 08:24:14;;;;;;;5.30;2.72;;;;;;;;;;5102671;27;20087;-65
2023/10/16 08:26:43;;;;;;;4.45;2.55;;;;;;;;;;5097730;28;20023;-65
2023/10/16 08:31:43;;;;;;;4.68;2.83;;;;;;;;;;5101579;27;20027;-62
2023/10/16 08:34:10;;;;;;;3.75;2.60;;;;;;;;;;5104527;28;20058;-63
2023/10/16 08:36:36;;;;;;;4.55;2.83;;;;;;;;;;5098560;28;20581;-62
2023/10/16 08:39:09;;;;;;;4.75;3.20;;;;;;;;;;5103446;27;20032;-64
2023/10/16 08:42:18;;;;;;;6.50;3.00;;;;;;;;;;5099295;27;20031;-63
2023/10/16 08:44:29;;;;;;;8.65;4.20;;;;;;;;;;5098620;28;20028;-63
2023/10/16 08:49:25;;;;;;;4.25;2.25;;;;;;;;;;5095622;28;20460;-63
2023/10/16 08:51:55;;;;;;;3.60;2.50;;;;;;;;;;5092280;28;20097;-62
2023/10/16 08:57:10;;;;;;;3.42;2.40;;;;;;;;;;5096121;27;20038;-62
2023/10/16 08:59:37;;;;;;;7.95;3.05;;;;;;;;;;5103843;28;20540;-62
2023/10/16 09:02:07;;;;;;;5.28;2.40;;;;;;;;;;5099921;27;20046;-62
2023/10/16 09:04:34;;;;;;;4.55;2.03;;;;;;;;;;5114802;27;20126;-63
2023/10/16 09:07:01;;;;;;;5.45;2.60;;;;;;;;;;5101209;27;20403;-63
2023/10/16 09:09:28;;;;;;;4.03;2.30;;;;;;;;;;5115917;27;20122;-65
2023/10/16 09:12:09;;;;;;;5.20;3.45;;;;;;;;;;5104924;27;20058;-65
2023/10/16 09:14:37;;;;;;;3.95;2.35;;;;;;;;;;5090106;28;20024;-66
2023/10/16 09:17:06;;;;;;;3.85;2.00;;;;;;;;;;5092735;28;20114;-66
2023/10/16 09:19:45;;;;;;;2.10;1.70;;;;;;;;;;5097874;28;20078;-66
2023/10/16 09:22:13;;;;;;;4.85;2.03;;;;;;;;;;5098938;28;20035;-65
2023/10/16 09:24:44;;;;;;;3.53;2.10;;;;;;;;;;5088481;28;20055;-65
2023/10/16 09:27:36;;;;;;;3.53;1.90;;;;;;;;;;5093364;28;20063;-65
2023/10/16 09:30:02;;;;;;;4.40;1.80;;;;;;;;;;5102034;27;20502;-66
2023/10/16 09:32:39;;;;;;;6.13;2.38;;;;;;;;;;5092010;28;20408;-65
2023/10/16 09:35:11;;;;;;;2.10;1.92;;;;;;;;;;5101081;28;20036;-66
2023/10/16 09:37:38;;;;;;;1.65;1.55;;;;;;;;;;5102328;27;20032;-62
2023/10/16 09:40:35;;;;;;;1.70;1.60;;;;;;;;;;5096577;28;20046;-63
2023/10/16 09:43:06;;;;;;;2.67;1.45;;;;;;;;;;5099342;28;20031;-62
2023/10/16 09:45:36;;;;;;;2.88;1.70;;;;;;;;;;5103800;27;20089;-62
2023/10/16 09:48:19;;;;;;;1.98;1.77;;;;;;;;;;5103464;27;20446;-63
2023/10/16 09:50:45;;;;;;;8.80;2.40;;;;;;;;;;5106189;27;20038;-63
2023/10/16 09:53:13;;;;;;;1.70;1.60;;;;;;;;;;5097131;28;20103;-62
2023/10/16 09:55:52;;;;;;;2.70;1.63;;;;;;;;;;5106170;27;20052;-63
2023/10/16 09:58:19;;;;;;;3.78;2.30;;;;;;;;;;5100125;28;20020;-63
2023/10/16 10:00:46;;;;;;;4.50;2.58;;;;;;;;;;5098840;27;20084;-62
2023/10/16 10:03:13;;;;;;;3.42;2.20;;;;;;;;;;5101613;28;20035;-63
2023/10/16 10:05:47;;;;;;;2.97;1.80;;;;;;;;;;5106356;28;20034;-63
2023/10/16 10:08:20;;;;;;;6.68;2.20;;;;;;;;;;5098105;27;20042;-63
2023/10/16 10:11:17;;;;;;;2.78;1.85;;;;;;;;;;5089810;28;20073;-65
2023/10/16 10:13:55;;;;;;;2.67;2.05;;;;;;;;;;5097023;27;20467;-63
2023/10/16 10:16:23;;;;;;;2.85;2.00;;;;;;;;;;5098648;28;20032;-63
2023/10/16 10:18:56;;;;;;;2.40;1.60;;;;;;;;;;5095809;27;20065;-63
2023/10/16 10:21:30;;;;;;;4.35;2.25;;;;;;;;;;5091443;28;20071;-67
2023/10/16 10:24:03;;;;;;;4.35;3.35;;;;;;;;;;5111312;27;20027;-63
2023/10/16 10:26:35;;;;;;;4.97;2.25;;;;;;;;;;5089171;28;20043;-63
2023/10/16 10:29:12;;;;;;;2.65;2.03;;;;;;;;;;5099251;27;20023;-65
2023/10/16 10:32:01;;;;;;;3.53;2.22;;;;;;;;;;5094823;28;20027;-63
2023/10/16 10:34:30;;;;;;;4.68;2.10;;;;;;;;;;5094016;28;20068;-62
2023/10/16 10:37:00;;;;;;;2.10;1.80;;;;;;;;;;5100932;28;20386;-63
2023/10/16 10:39:38;;;;;;;3.67;1.67;;;;;;;;;;5100368;27;20050;-65
2023/10/16 10:42:04;;;;;;;3.42;1.90;;;;;;;;;;5090877;28;20101;-66
2023/10/16 10:44:39;;;;;;;6.03;2.53;;;;;;;;;;5093715;28;20103;-66
2023/10/16 10:47:20;;;;;;;2.67;1.70;;;;;;;;;;5098563;28;20088;-62
2023/10/16 10:49:49;;;;;;;3.83;2.05;;;;;;;;;;5097962;27;20869;-63
2023/10/16 10:52:18;;;;;;;2.75;1.80;;;;;;;;;;5099416;28;20040;-63
2023/10/16 10:54:48;;;;;;;3.97;1.80;;;;;;;;;;5097132;27;20028;-62
2023/10/16 10:57:19;;;;;;;2.55;1.95;;;;;;;;;;5097652;28;20028;-64
2023/10/16 10:59:55;;;;;;;3.42;1.80;;;;;;;;;;5092770;28;20039;-62
2023/10/16 11:03:08;;;;;;;11.90;1.83;;;;;;;;;;5102331;28;20046;-63
2023/10/16 11:05:30;;;;;;;2.20;1.92;;;;;;;;;;5087365;28;20380;-62
2023/10/16 11:10:44;;;;;;;3.80;1.70;;;;;;;;;;5091698;27;20023;-69
2023/10/16 11:13:11;;;;;;;1.90;1.70;;;;;;;;;;5102706;27;20045;-66
2023/10/16 11:15:37;;;;;;;2.55;1.80;;;;;;;;;;5102170;28;20032;-66
2023/10/16 11:18:18;;;;;;;1.60;1.50;;;;;;;;;;5105947;28;20030;-66
2023/10/16 11:20:45;;;;;;;2.10;1.85;;;;;;;;;;5117949;27;20027;-65
2023/10/16 11:23:13;;;;;;;3.95;2.65;;;;;;;;;;5098612;28;20023;-66
2023/10/16 11:25:44;;;;;;;5.15;2.03;;;;;;;;;;5099153;28;20030;-71
2023/10/16 11:28:17;;;;;;;3.35;1.90;;;;;;;;;;5098002;28;20402;-71
2023/10/16 11:30:47;;;;;;;1.92;1.65;;;;;;;;;;5100318;28;20031;-71
2023/10/16 11:33:13;;;;;;;1.70;1.50;;;;;;;;;;5096798;27;20076;-69
2023/10/16 11:35:43;;;;;;;3.75;1.55;;;;;;;;;;5102845;28;20153;-69
2023/10/16 11:38:19;;;;;;;2.40;1.60;;;;;;;;;;5113739;27;20031;-70
2023/10/16 11:40:50;;;;;;;5.38;2.80;;;;;;;;;;5102490;27;20069;-68
2023/10/16 11:43:21;;;;;;;2.50;1.92;;;;;;;;;;5106116;28;20035;-68
2023/10/16 11:45:53;;;;;;;3.42;2.05;;;;;;;;;;5104951;28;20441;-70
2023/10/16 11:51:17;;;;;;;5.38;1.50;;;;;;;;;;5101864;28;20476;-72
2023/10/16 11:53:46;;;;;;;3.55;1.88;;;;;;;;;;5099772;28;20055;-70
2023/10/16 11:56:13;;;;;;;2.40;1.50;;;;;;;;;;5099913;28;20052;-70
2023/10/16 11:58:42;;;;;;;3.92;2.20;;;;;;;;;;5120064;27;20680;-69
2023/10/16 12:01:12;;;;;;;3.50;2.22;;;;;;;;;;5103699;28;20084;-69
2023/10/16 12:03:39;;;;;;;4.32;1.85;;;;;;;;;;5090812;28;20479;-69
2023/10/16 12:06:08;;;;;;;2.28;1.52;;;;;;;;;;5100430;28;20020;-71
2023/10/16 12:08:34;;;;;;;3.33;2.28;;;;;;;;;;5099347;27;20067;-69
2023/10/16 12:11:01;;;;;;;5.97;2.10;;;;;;;;;;5101009;28;20031;-68
2023/10/16 12:13:28;;;;;;;3.38;2.08;;;;;;;;;;5098953;27;20452;-69
2023/10/16 12:15:54;;;;;;;4.78;1.65;;;;;;;;;;5097018;28;20794;-69
2023/10/16 12:18:21;;;;;;;1.70;1.60;;;;;;;;;;5091431;28;20662;-64
2023/10/16 12:20:47;;;;;;;4.28;1.58;;;;;;;;;;5105702;28;20059;-68
2023/10/16 12:23:14;;;;;;;2.67;1.77;;;;;;;;;;5101686;28;20059;-69
2023/10/16 12:25:40;;;;;;;2.35;1.60;;;;;;;;;;5104475;28;20028;-69
2023/10/16 12:28:08;;;;;;;3.33;1.70;;;;;;;;;;5098375;27;20024;-69
2023/10/16 12:30:36;;;;;;;2.83;1.83;;;;;;;;;;5090846;28;20413;-69
2023/10/16 12:33:06;;;;;;;3.13;1.55;;;;;;;;;;5099588;28;20169;-70
2023/10/16 12:35:34;;;;;;;4.38;1.98;;;;;;;;;;5098305;27;20020;-70
2023/10/16 12:38:04;;;;;;;1.50;1.40;;;;;;;;;;5101468;28;20031;-69
2023/10/16 12:40:37;;;;;;;1.50;1.40;;;;;;;;;;5103201;27;20047;-71
2023/10/16 12:43:06;;;;;;;2.28;1.60;;;;;;;;;;5100907;28;20024;-66
2023/10/16 12:45:33;;;;;;;2.05;1.80;;;;;;;;;;5104381;28;20025;-65
2023/10/16 12:47:59;;;;;;;2.53;1.70;;;;;;;;;;5101452;28;20114;-65
2023/10/16 12:50:28;;;;;;;2.22;2.03;;;;;;;;;;5099175;27;20571;-64
2023/10/16 12:52:56;;;;;;;2.00;1.38;;;;;;;;;;5086127;28;20491;-65
2023/10/16 12:55:23;;;;;;;2.05;1.50;;;;;;;;;;5099936;28;20028;-66
2023/10/16 12:57:55;;;;;;;2.10;1.90;;;;;;;;;;5107182;27;20027;-66
2023/10/16 13:00:23;;;;;;;4.18;2.10;;;;;;;;;;5099303;28;20028;-66
2023/10/16 13:02:51;;;;;;;2.50;1.60;;;;;;;;;;5096009;28;20044;-66
2023/10/16 13:05:24;;;;;;;1.95;1.60;;;;;;;;;;5101427;27;20141;-71
2023/10/16 13:07:51;;;;;;;1.90;1.50;;;;;;;;;;5097706;28;20035;-71
2023/10/16 13:10:20;;;;;;;2.50;1.60;;;;;;;;;;5102528;27;20076;-70
2023/10/16 13:12:47;;;;;;;1.65;1.52;;;;;;;;;;5108865;28;20308;-68
2023/10/16 13:15:24;;;;;;;2.40;1.50;;;;;;;;;;5101261;27;20407;-69
2023/10/16 13:17:53;;;;;;;5.78;1.70;;;;;;;;;;5098346;27;20035;-68
2023/10/16 13:20:20;;;;;;;2.55;1.85;;;;;;;;;;5113560;27;20412;-67
2023/10/16 13:22:49;;;;;;;2.20;1.60;;;;;;;;;;5092350;28;20770;-68
2023/10/16 13:25:22;;;;;;;1.88;1.50;;;;;;;;;;5113359;28;20028;-68
2023/10/16 13:27:51;;;;;;;2.67;1.63;;;;;;;;;;5106286;28;20039;-68
2023/10/16 13:30:18;;;;;;;3.13;1.40;;;;;;;;;;5095158;28;20035;-65
2023/10/16 13:32:49;;;;;;;3.22;1.90;;;;;;;;;;5098585;28;20023;-64
2023/10/16 13:35:24;;;;;;;2.83;1.58;;;;;;;;;;5105041;27;20035;-64
2023/10/16 13:37:50;;;;;;;1.40;1.40;;;;;;;;;;5107205;28;20599;-63
2023/10/16 13:40:21;;;;;;;2.75;1.60;;;;;;;;;;5113245;27;20055;-64
2023/10/16 13:42:50;;;;;;;1.60;1.50;;;;;;;;;;5101686;28;20042;-63
2023/10/16 13:45:17;;;;;;;2.47;1.63;;;;;;;;;;5095157;28;20016;-64
2023/10/16 13:47:44;;;;;;;1.85;1.48;;;;;;;;;;5103701;27;20173;-65
2023/10/16 13:50:15;;;;;;;1.92;1.75;;;;;;;;;;5093598;28;20031;-64
2023/10/16 13:52:44;;;;;;;2.45;2.05;;;;;;;;;;5103048;28;20030;-64
2023/10/16 13:55:12;;;;;;;2.20;1.20;;;;;;;;;;5095062;27;20216;-63
2023/10/16 13:57:47;;;;;;;3.65;1.60;;;;;;;;;;5092082;28;20038;-64
2023/10/16 14:00:28;;;;;;;1.60;1.50;;;;;;;;;;5108275;28;20016;-65
2023/10/16 14:03:17;;;;;;;3.10;1.40;;;;;;;;;;5102581;27;20051;-65
2023/10/16 14:05:46;;;;;;;2.80;1.73;;;;;;;;;;5099333;28;20696;-66
2023/10/16 14:08:17;;;;;;;3.42;1.65;;;;;;;;;;5103960;28;20039;-66
2023/10/16 14:10:49;;;;;;;4.97;1.90;;;;;;;;;;5088737;28;20028;-66
2023/10/16 14:13:28;;;;;;;3.15;2.10;;;;;;;;;;5099784;28;20024;-63
2023/10/16 14:15:57;;;;;;;3.40;2.38;;;;;;;;;;5100011;28;20149;-64
2023/10/16 14:18:29;;;;;;;2.78;1.90;;;;;;;;;;5098907;28;20443;-63
2023/10/16 14:20:56;;;;;;;2.65;1.80;;;;;;;;;;5096963;28;20472;-65
2023/10/16 14:23:28;;;;;;;3.15;1.98;;;;;;;;;;5098171;27;20107;-66
2023/10/16 14:26:00;;;;;;;2.92;1.95;;;;;;;;;;5101283;28;20023;-66
2023/10/16 14:28:32;;;;;;;3.53;2.10;;;;;;;;;;5094702;28;20084;-66
2023/10/16 14:30:59;;;;;;;4.38;1.80;;;;;;;;;;5095545;28;20461;-66
2023/10/16 14:33:28;;;;;;;1.95;1.52;;;;;;;;;;5097538;28;20034;-68
2023/10/16 14:36:05;;;;;;;2.78;1.63;;;;;;;;;;5099999;28;20376;-68
2023/10/16 14:38:31;;;;;;;1.83;1.60;;;;;;;;;;5103491;27;20039;-69
2023/10/16 14:41:09;;;;;;;1.77;1.65;;;;;;;;;;5092418;28;20054;-70
2023/10/16 14:43:39;;;;;;;1.77;1.67;;;;;;;;;;5103489;28;20019;-70
2023/10/16 14:46:10;;;;;;;3.47;1.80;;;;;;;;;;5100959;27;20140;-70
2023/10/16 14:48:46;;;;;;;1.95;1.80;;;;;;;;;;5100873;28;20401;-65
2023/10/16 14:51:18;;;;;;;3.03;1.90;;;;;;;;;;5099562;28;20036;-67
2023/10/16 14:53:48;;;;;;;2.75;1.90;;;;;;;;;;5092823;28;20519;-66
2023/10/16 14:56:18;;;;;;;2.38;1.90;;;;;;;;;;5098970;28;20458;-67
2023/10/16 14:58:49;;;;;;;5.65;1.80;;;;;;;;;;5098949;28;20035;-69
2023/10/16 15:01:27;;;;;;;4.45;2.08;;;;;;;;;;5100416;28;20028;-67
2023/10/16 15:03:56;;;;;;;3.35;1.90;;;;;;;;;;5096674;28;20024;-63
2023/10/16 15:06:23;;;;;;;2.50;1.98;;;;;;;;;;5095726;28;20030;-65
2023/10/16 15:08:59;;;;;;;1.92;1.80;;;;;;;;;;5097954;28;20032;-64
2023/10/16 15:11:26;;;;;;;6.72;2.50;;;;;;;;;;5058292;22;20064;-65
2023/10/16 15:13:52;;;;;;;2.40;1.80;;;;;;;;;;5028863;28;20032;-64
2023/10/16 15:16:21;;;;;;;3.60;2.35;;;;;;;;;;5039527;28;20025;-65
2023/10/16 15:18:47;;;;;;;6.72;2.90;;;;;;;;;;5041030;28;20028;-64
2023/10/16 15:21:14;;;;;;;3.83;2.30;;;;;;;;;;5038009;28;20041;-64
2023/10/16 15:23:40;;;;;;;3.90;2.53;;;;;;;;;;5033479;28;20033;-64
2023/10/16 15:26:07;;;;;;;4.15;2.20;;;;;;;;;;5027939;28;20032;-65
2023/10/16 15:28:33;;;;;;;3.35;2.40;;;;;;;;;;5032453;28;20557;-64
2023/10/16 15:31:00;;;;;;;4.97;2.72;;;;;;;;;;5040834;28;20055;-64
2023/10/16 15:33:26;;;;;;;4.40;2.90;;;;;;;;;;5032439;28;20033;-64
2023/10/16 15:35:53;;;;;;;6.45;2.70;;;;;;;;;;5036904;28;20034;-64
2023/10/16 15:38:24;;;;;;;6.38;3.22;;;;;;;;;;5038430;28;20037;-64
2023/10/16 15:40:51;;;;;;;6.57;2.90;;;;;;;;;;5038268;28;20033;-64
2023/10/16 15:43:18;;;;;;;5.20;4.20;;;;;;;;;;5026354;28;20036;-64
2023/10/16 15:45:44;;;;;;;4.60;2.72;;;;;;;;;;5032522;28;20029;-63
2023/10/16 15:48:12;;;;;;;3.28;2.60;;;;;;;;;;5028845;28;20083;-65
2023/10/16 15:50:40;;;;;;;2.53;1.95;;;;;;;;;;5036797;28;20491;-64
2023/10/16 15:53:07;;;;;;;3.50;2.35;;;;;;;;;;5038120;28;20029;-64
2023/10/16 15:55:34;;;;;;;5.50;3.22;;;;;;;;;;5039956;28;20032;-64
2023/10/16 15:58:00;;;;;;;2.85;2.10;;;;;;;;;;5043071;28;20025;-63
2023/10/16 16:00:26;;;;;;;6.72;3.00;;;;;;;;;;5044326;28;20041;-65
2023/10/16 16:02:59;;;;;;;4.65;2.22;;;;;;;;;;5028747;28;20749;-66
2023/10/16 16:05:28;;;;;;;4.75;2.80;;;;;;;;;;5041930;28;20386;-64
2023/10/16 16:07:55;;;;;;;6.80;2.63;;;;;;;;;;5043419;28;20056;-64
2023/10/16 16:10:21;;;;;;;5.57;3.05;;;;;;;;;;5041084;28;20036;-65
2023/10/16 16:12:48;;;;;;;4.53;2.10;;;;;;;;;;5037360;28;20032;-65
2023/10/16 16:15:21;;;;;;;4.88;2.60;;;;;;;;;;5042485;28;20037;-64
2023/10/16 16:17:48;;;;;;;4.28;2.88;;;;;;;;;;5041130;28;20075;-65
2023/10/16 16:20:17;;;;;;;7.57;3.80;;;;;;;;;;5040955;28;20517;-65
2023/10/16 16:22:46;;;;;;;8.93;3.95;;;;;;;;;;5040255;28;20029;-65
2023/10/16 16:25:13;;;;;;;4.22;2.92;;;;;;;;;;5031899;28;20032;-64
2023/10/16 16:27:40;;;;;;;5.35;3.13;;;;;;;;;;5037394;28;20028;-64
2023/10/16 16:30:07;;;;;;;5.80;3.42;;;;;;;;;;5040799;28;20053;-64
2023/10/16 16:32:34;;;;;;;5.72;3.03;;;;;;;;;;5039138;28;20083;-64
2023/10/16 16:35:00;;;;;;;3.90;2.85;;;;;;;;;;5039694;28;20029;-65
2023/10/16 16:37:27;;;;;;;5.47;2.30;;;;;;;;;;5042497;28;20102;-64
2023/10/16 16:39:53;;;;;;;4.72;2.30;;;;;;;;;;5042893;28;20159;-65
2023/10/16 16:42:19;;;;;;;5.55;2.70;;;;;;;;;;5038675;28;20021;-64
2023/10/16 16:44:45;;;;;;;5.57;3.42;;;;;;;;;;5040451;28;20485;-64
2023/10/16 16:47:11;;;;;;;8.07;4.10;;;;;;;;;;5040548;28;20029;-64
2023/10/16 16:49:39;;;;;;;4.20;3.13;;;;;;;;;;5044704;28;20185;-64
2023/10/16 16:52:05;;;;;;;7.47;5.63;;;;;;;;;;5042048;28;20064;-64
2023/10/16 16:54:31;;;;;;;8.80;5.40;;;;;;;;;;5041405;28;20029;-65